Time;durP1;ratioP1;P1;durP2;ratioP2;P2;SDS_P1;SDS_P2;PMS_P1;PMS_P2;Temp;Humidity;BMP_temperature;BMP_pressure;BME280_temperature;BME280_humidity;BME280_pressure;Samples;Min_cycle;Max_cycle;Signal;HPM_P1;HPM_P2
2024/01/09 00:00:39;;;;;;;2.67;1.40;;;;;;;;;;4963911;28;93738;-63
2024/01/09 00:03:07;;;;;;;1.23;1.13;;;;;;;;;;4962410;28;92157;-63
2024/01/09 00:05:36;;;;;;;1.27;1.10;;;;;;;;;;4965964;28;91341;-63
2024/01/09 00:08:04;;;;;;;1.00;1.00;;;;;;;;;;4966906;28;94088;-63
2024/01/09 00:10:33;;;;;;;1.53;1.07;;;;;;;;;;4965827;28;94052;-63
2024/01/09 00:13:03;;;;;;;2.53;1.03;;;;;;;;;;4961295;28;94231;-63
2024/01/09 00:15:33;;;;;;;1.87;0.93;;;;;;;;;;4967001;28;92084;-63
2024/01/09 00:18:02;;;;;;;1.20;1.10;;;;;;;;;;4967929;28;94246;-63
2024/01/09 00:20:30;;;;;;;1.03;0.80;;;;;;;;;;4966071;28;93718;-63
2024/01/09 00:23:00;;;;;;;1.50;1.00;;;;;;;;;;4967903;28;92127;-63
2024/01/09 00:25:30;;;;;;;2.10;0.77;;;;;;;;;;4965639;28;92071;-63
2024/01/09 00:28:00;;;;;;;1.03;0.90;;;;;;;;;;4960977;28;94265;-62
2024/01/09 00:30:32;;;;;;;1.67;1.17;;;;;;;;;;4963325;28;93839;-63
2024/01/09 00:33:01;;;;;;;1.00;0.90;;;;;;;;;;4964645;28;92409;-63
2024/01/09 00:35:33;;;;;;;0.70;0.70;;;;;;;;;;4966106;28;92258;-63
2024/01/09 00:38:01;;;;;;;1.00;0.90;;;;;;;;;;4965747;28;95244;-63
2024/01/09 00:40:31;;;;;;;2.20;0.97;;;;;;;;;;4950326;28;94734;-63
2024/01/09 00:42:59;;;;;;;1.60;1.13;;;;;;;;;;4956735;28;92130;-63
2024/01/09 00:45:29;;;;;;;1.03;0.60;;;;;;;;;;4954370;28;92136;-63
2024/01/09 00:47:59;;;;;;;0.67;0.60;;;;;;;;;;4950899;28;94362;-63
2024/01/09 00:50:31;;;;;;;0.90;0.50;;;;;;;;;;4950268;28;92703;-64
2024/01/09 00:53:03;;;;;;;0.80;0.50;;;;;;;;;;4950881;28;92087;-63
2024/01/09 00:55:33;;;;;;;1.50;1.40;;;;;;;;;;4952808;28;91869;-63
2024/01/09 00:58:01;;;;;;;0.87;0.83;;;;;;;;;;4951989;28;94186;-63
2024/01/09 01:00:31;;;;;;;0.70;0.70;;;;;;;;;;4946062;28;93866;-63
2024/01/09 01:02:59;;;;;;;0.83;0.80;;;;;;;;;;4951662;28;94490;-63
2024/01/09 01:05:31;;;;;;;1.17;0.87;;;;;;;;;;4957436;28;92131;-63
2024/01/09 01:08:00;;;;;;;0.97;0.63;;;;;;;;;;4950857;28;94167;-63
2024/01/09 01:10:32;;;;;;;0.60;0.57;;;;;;;;;;4950284;28;93941;-63
2024/01/09 01:13:01;;;;;;;0.60;0.60;;;;;;;;;;4955272;28;92135;-63
2024/01/09 01:15:29;;;;;;;1.27;0.60;;;;;;;;;;4948874;28;93061;-63
2024/01/09 01:18:03;;;;;;;1.70;0.73;;;;;;;;;;4953086;28;94286;-63
2024/01/09 01:20:33;;;;;;;0.70;0.57;;;;;;;;;;4956085;28;93996;-64
2024/01/09 01:23:01;;;;;;;0.73;0.70;;;;;;;;;;4954222;28;92060;-63
2024/01/09 01:25:31;;;;;;;0.60;0.60;;;;;;;;;;4947744;28;92108;-63
2024/01/09 01:28:01;;;;;;;0.93;0.70;;;;;;;;;;4953212;28;94907;-63
2024/01/09 01:30:30;;;;;;;0.80;0.60;;;;;;;;;;4948622;28;95027;-63
2024/01/09 01:33:00;;;;;;;1.53;1.00;;;;;;;;;;4956234;28;92049;-63
2024/01/09 01:35:36;;;;;;;0.60;0.60;;;;;;;;;;4951806;28;92749;-63
2024/01/09 01:38:05;;;;;;;0.67;0.67;;;;;;;;;;4957566;28;93029;-63
2024/01/09 01:40:33;;;;;;;0.60;0.40;;;;;;;;;;4950083;28;93844;-63
2024/01/09 01:43:01;;;;;;;0.70;0.70;;;;;;;;;;4956395;28;92040;-63
2024/01/09 01:45:31;;;;;;;0.57;0.57;;;;;;;;;;4946262;28;91415;-63
2024/01/09 01:48:02;;;;;;;1.00;0.77;;;;;;;;;;4954939;28;94250;-63
2024/01/09 01:50:33;;;;;;;0.77;0.53;;;;;;;;;;4953074;28;93836;-63
2024/01/09 01:53:01;;;;;;;0.77;0.73;;;;;;;;;;4951105;28;93090;-64
2024/01/09 01:55:29;;;;;;;1.03;0.93;;;;;;;;;;4952619;28;92992;-63
2024/01/09 01:58:01;;;;;;;0.63;0.40;;;;;;;;;;4952765;28;94206;-63
2024/01/09 02:00:31;;;;;;;1.23;0.53;;;;;;;;;;4952308;28;93874;-63
2024/01/09 02:02:59;;;;;;;1.17;0.83;;;;;;;;;;4951400;28;92054;-63
2024/01/09 02:05:30;;;;;;;0.70;0.70;;;;;;;;;;4949372;28;92188;-63
2024/01/09 02:07:58;;;;;;;0.67;0.67;;;;;;;;;;4953235;28;94232;-63
2024/01/09 02:10:27;;;;;;;0.90;0.50;;;;;;;;;;4952575;28;94940;-63
2024/01/09 02:12:55;;;;;;;0.80;0.50;;;;;;;;;;4949812;28;92102;-63
2024/01/09 02:15:23;;;;;;;0.70;0.70;;;;;;;;;;4955337;28;92143;-63
2024/01/09 02:17:52;;;;;;;0.60;0.60;;;;;;;;;;4949530;28;95255;-63
2024/01/09 02:20:22;;;;;;;0.40;0.40;;;;;;;;;;4953850;28;94887;-63
2024/01/09 02:22:51;;;;;;;0.80;0.60;;;;;;;;;;4950073;28;93479;-63
2024/01/09 02:25:20;;;;;;;0.63;0.63;;;;;;;;;;4958919;28;92301;-63
2024/01/09 02:27:49;;;;;;;0.47;0.47;;;;;;;;;;4955041;28;94104;-63
2024/01/09 02:30:19;;;;;;;3.90;0.40;;;;;;;;;;4959348;28;94107;-63
2024/01/09 02:32:47;;;;;;;0.73;0.63;;;;;;;;;;4954699;28;92232;-63
2024/01/09 02:35:16;;;;;;;1.53;0.70;;;;;;;;;;4960667;28;91827;-63
2024/01/09 02:37:45;;;;;;;0.40;0.40;;;;;;;;;;4959904;28;94140;-63
2024/01/09 02:40:13;;;;;;;0.70;0.53;;;;;;;;;;4959119;28;93881;-63
2024/01/09 02:42:41;;;;;;;1.93;1.07;;;;;;;;;;4967510;28;93312;-63
2024/01/09 02:45:10;;;;;;;0.60;0.60;;;;;;;;;;4968877;28;92078;-63
2024/01/09 02:47:40;;;;;;;0.50;0.50;;;;;;;;;;4966922;28;94385;-63
2024/01/09 02:50:08;;;;;;;0.50;0.50;;;;;;;;;;4960468;28;93906;-63
2024/01/09 02:52:37;;;;;;;1.23;0.67;;;;;;;;;;4959995;28;92897;-63
2024/01/09 02:55:05;;;;;;;1.43;0.80;;;;;;;;;;4967788;28;92685;-63
2024/01/09 02:57:33;;;;;;;0.80;0.57;;;;;;;;;;4956969;28;94327;-62
2024/01/09 03:00:02;;;;;;;0.70;0.70;;;;;;;;;;4977604;28;93860;-62
2024/01/09 03:02:31;;;;;;;0.70;0.70;;;;;;;;;;4962501;28;92089;-63
2024/01/09 03:05:01;;;;;;;0.70;0.70;;;;;;;;;;4967201;28;92267;-63
2024/01/09 03:07:30;;;;;;;1.07;0.70;;;;;;;;;;4969709;28;95204;-62
2024/01/09 03:09:58;;;;;;;0.50;0.50;;;;;;;;;;4967692;28;94834;-63
2024/01/09 03:12:26;;;;;;;0.77;0.77;;;;;;;;;;4971629;28;92017;-63
2024/01/09 03:14:55;;;;;;;0.63;0.57;;;;;;;;;;4968849;28;92096;-63
2024/01/09 03:17:23;;;;;;;0.50;0.50;;;;;;;;;;4968637;28;94196;-63
2024/01/09 03:19:52;;;;;;;0.63;0.60;;;;;;;;;;4967844;28;93837;-63
2024/01/09 03:22:22;;;;;;;0.80;0.70;;;;;;;;;;4966924;28;92098;-62
2024/01/09 03:24:50;;;;;;;1.20;0.70;;;;;;;;;;4970536;28;91634;-63
2024/01/09 03:27:19;;;;;;;0.50;0.50;;;;;;;;;;4965949;28;94205;-63
2024/01/09 03:29:47;;;;;;;2.10;1.27;;;;;;;;;;4967541;28;93995;-63
2024/01/09 03:32:15;;;;;;;0.60;0.60;;;;;;;;;;4968480;28;92974;-63
2024/01/09 03:34:44;;;;;;;0.90;0.50;;;;;;;;;;4968269;28;92108;-63
2024/01/09 03:37:13;;;;;;;2.17;1.27;;;;;;;;;;4966387;28;94271;-63
2024/01/09 03:39:43;;;;;;;1.90;1.20;;;;;;;;;;4966679;28;92829;-63
2024/01/09 03:42:11;;;;;;;1.20;0.77;;;;;;;;;;4956215;28;92633;-63
2024/01/09 03:44:39;;;;;;;1.13;1.03;;;;;;;;;;4958973;28;92137;-63
2024/01/09 03:47:08;;;;;;;2.00;1.27;;;;;;;;;;4952509;28;93953;-63
2024/01/09 03:49:37;;;;;;;2.30;1.53;;;;;;;;;;4959214;28;93965;-63
2024/01/09 03:52:06;;;;;;;2.13;1.30;;;;;;;;;;4959356;28;92248;-63
2024/01/09 03:54:34;;;;;;;1.77;0.90;;;;;;;;;;4954138;28;92173;-63
2024/01/09 03:57:04;;;;;;;2.73;1.40;;;;;;;;;;4953427;28;95190;-63
2024/01/09 03:59:32;;;;;;;1.50;1.40;;;;;;;;;;4958969;28;94720;-63
2024/01/09 04:02:01;;;;;;;1.40;1.20;;;;;;;;;;4958836;28;92013;-63
2024/01/09 04:04:30;;;;;;;2.53;1.30;;;;;;;;;;4958747;28;92206;-63
2024/01/09 04:06:58;;;;;;;2.10;1.73;;;;;;;;;;4956868;28;93052;-63
2024/01/09 04:09:26;;;;;;;3.83;1.53;;;;;;;;;;4958735;28;93780;-63
2024/01/09 04:11:55;;;;;;;3.20;1.90;;;;;;;;;;4959092;28;91977;-63
2024/01/09 04:14:24;;;;;;;2.83;1.40;;;;;;;;;;4959115;28;91455;-63
2024/01/09 04:16:53;;;;;;;3.60;2.13;;;;;;;;;;4952360;28;94307;-63
2024/01/09 04:19:21;;;;;;;3.20;2.20;;;;;;;;;;4957080;28;94008;-63
2024/01/09 04:21:50;;;;;;;3.70;1.87;;;;;;;;;;4938971;28;92942;-63
2024/01/09 04:24:19;;;;;;;2.60;1.37;;;;;;;;;;4940068;28;92052;-63
2024/01/09 04:26:49;;;;;;;2.50;1.30;;;;;;;;;;4933802;28;94145;-63
2024/01/09 04:29:18;;;;;;;4.00;2.33;;;;;;;;;;4939160;28;93627;-63
2024/01/09 04:31:48;;;;;;;2.77;1.83;;;;;;;;;;4938017;28;92248;-63
2024/01/09 04:34:18;;;;;;;2.43;1.47;;;;;;;;;;4939434;28;91957;-63
2024/01/09 04:36:46;;;;;;;2.27;1.30;;;;;;;;;;4953140;28;94328;-63
2024/01/09 04:39:14;;;;;;;2.07;1.80;;;;;;;;;;4957633;28;93934;-62
2024/01/09 04:41:43;;;;;;;3.70;2.20;;;;;;;;;;4964972;28;92648;-62
2024/01/09 04:44:11;;;;;;;1.73;1.20;;;;;;;;;;4966426;28;92158;-62
2024/01/09 04:46:39;;;;;;;1.60;1.50;;;;;;;;;;4965901;28;95202;-62
2024/01/09 04:49:09;;;;;;;1.47;1.37;;;;;;;;;;4968099;28;94791;-62
2024/01/09 04:51:38;;;;;;;1.23;1.17;;;;;;;;;;4966011;28;92156;-62
2024/01/09 04:54:06;;;;;;;2.30;1.63;;;;;;;;;;4968205;28;92202;-62
2024/01/09 04:56:35;;;;;;;3.67;1.73;;;;;;;;;;4966097;28;92921;-62
2024/01/09 04:59:04;;;;;;;1.70;1.47;;;;;;;;;;4965144;28;93662;-62
2024/01/09 05:01:32;;;;;;;2.27;1.40;;;;;;;;;;4968495;28;92054;-63
2024/01/09 05:04:00;;;;;;;2.27;1.10;;;;;;;;;;4968064;28;92809;-63
2024/01/09 05:06:30;;;;;;;1.50;1.30;;;;;;;;;;4970060;28;93950;-63
2024/01/09 05:08:58;;;;;;;1.43;1.03;;;;;;;;;;4960394;28;93873;-63
2024/01/09 05:11:27;;;;;;;2.43;1.37;;;;;;;;;;4974688;28;93030;-62
2024/01/09 05:13:55;;;;;;;3.30;1.13;;;;;;;;;;4961246;28;92136;-62
2024/01/09 05:16:24;;;;;;;0.97;0.83;;;;;;;;;;4957092;28;94310;-62
2024/01/09 05:18:52;;;;;;;1.50;1.40;;;;;;;;;;4973356;28;93820;-63
2024/01/09 05:21:21;;;;;;;3.80;1.07;;;;;;;;;;4959963;28;91953;-63
2024/01/09 05:23:51;;;;;;;1.70;1.33;;;;;;;;;;4972966;28;92204;-63
2024/01/09 05:26:20;;;;;;;0.90;0.90;;;;;;;;;;4971834;28;94192;-63
2024/01/09 05:28:48;;;;;;;1.83;1.30;;;;;;;;;;4961464;28;93777;-63
2024/01/09 05:31:16;;;;;;;1.57;1.47;;;;;;;;;;4963659;28;92226;-63
2024/01/09 05:33:45;;;;;;;1.93;1.33;;;;;;;;;;4970863;28;92164;-62
2024/01/09 05:36:18;;;;;;;1.63;1.17;;;;;;;;;;4960813;28;95256;-62
2024/01/09 05:38:46;;;;;;;4.77;1.63;;;;;;;;;;4971097;28;93563;-63
2024/01/09 05:41:20;;;;;;;1.57;1.37;;;;;;;;;;4973704;28;92124;-62
2024/01/09 05:43:49;;;;;;;1.13;1.03;;;;;;;;;;4965166;28;92097;-62
2024/01/09 05:46:17;;;;;;;1.47;1.20;;;;;;;;;;4963793;28;94278;-62
2024/01/09 05:48:46;;;;;;;3.23;1.40;;;;;;;;;;4971186;28;94432;-62
2024/01/09 05:51:15;;;;;;;1.60;1.50;;;;;;;;;;4974630;28;92520;-62
2024/01/09 05:53:43;;;;;;;1.40;1.30;;;;;;;;;;4966919;28;91486;-63
2024/01/09 05:56:14;;;;;;;1.13;1.00;;;;;;;;;;4958096;28;95047;-63
2024/01/09 05:58:43;;;;;;;1.23;0.90;;;;;;;;;;4959087;28;92744;-63
2024/01/09 06:01:12;;;;;;;1.30;1.00;;;;;;;;;;4960415;28;92987;-62
2024/01/09 06:03:40;;;;;;;2.37;1.23;;;;;;;;;;4970257;28;92420;-63
2024/01/09 06:06:08;;;;;;;1.87;1.30;;;;;;;;;;4970799;28;94209;-62
2024/01/09 06:08:37;;;;;;;1.30;1.20;;;;;;;;;;4969379;28;93802;-63
2024/01/09 06:11:05;;;;;;;2.20;0.90;;;;;;;;;;4979342;28;91932;-62
2024/01/09 06:13:34;;;;;;;0.90;0.90;;;;;;;;;;4972885;28;92066;-62
2024/01/09 06:16:03;;;;;;;1.70;1.20;;;;;;;;;;4959954;28;94154;-63
2024/01/09 06:18:32;;;;;;;4.03;0.77;;;;;;;;;;4962322;28;94144;-63
2024/01/09 06:21:00;;;;;;;1.00;0.90;;;;;;;;;;4961352;28;92069;-63
2024/01/09 06:23:28;;;;;;;1.30;1.10;;;;;;;;;;4964927;28;92439;-63
2024/01/09 06:25:57;;;;;;;0.97;0.80;;;;;;;;;;4979659;28;94038;-62
2024/01/09 06:28:25;;;;;;;3.17;1.13;;;;;;;;;;4976888;28;94848;-62
2024/01/09 06:30:53;;;;;;;0.90;0.60;;;;;;;;;;4971451;28;92133;-62
2024/01/09 06:33:23;;;;;;;4.23;1.07;;;;;;;;;;4959512;28;92390;-62
2024/01/09 06:35:52;;;;;;;1.30;1.00;;;;;;;;;;4955175;28;94153;-62
2024/01/09 06:38:22;;;;;;;0.70;0.70;;;;;;;;;;4960805;28;93806;-62
2024/01/09 06:40:56;;;;;;;1.30;0.90;;;;;;;;;;4973302;28;92145;-62
2024/01/09 06:43:24;;;;;;;1.10;0.80;;;;;;;;;;4960818;28;91321;-62
2024/01/09 06:46:00;;;;;;;1.27;0.90;;;;;;;;;;4960378;28;94125;-62
2024/01/09 06:48:32;;;;;;;1.50;0.73;;;;;;;;;;4959900;28;93854;-62
2024/01/09 06:51:01;;;;;;;0.93;0.70;;;;;;;;;;4972179;28;92960;-62
2024/01/09 06:53:29;;;;;;;0.53;0.53;;;;;;;;;;4962480;28;92076;-62
2024/01/09 06:55:57;;;;;;;0.77;0.63;;;;;;;;;;4978432;28;93925;-62
2024/01/09 06:58:26;;;;;;;1.07;0.70;;;;;;;;;;4972942;28;94150;-62
2024/01/09 07:00:54;;;;;;;0.90;0.90;;;;;;;;;;4972216;28;92051;-62
2024/01/09 07:03:22;;;;;;;1.43;0.97;;;;;;;;;;4979149;28;92105;-62
2024/01/09 07:05:52;;;;;;;0.60;0.60;;;;;;;;;;4964605;28;94244;-62
2024/01/09 07:08:21;;;;;;;1.50;0.80;;;;;;;;;;4968897;28;93884;-63
2024/01/09 07:10:49;;;;;;;1.70;1.13;;;;;;;;;;4958983;28;92271;-63
2024/01/09 07:13:17;;;;;;;0.80;0.70;;;;;;;;;;4967013;28;92050;-62
2024/01/09 07:15:47;;;;;;;2.37;0.67;;;;;;;;;;4964107;28;93708;-63
2024/01/09 07:18:17;;;;;;;0.73;0.70;;;;;;;;;;4969961;28;94928;-62
2024/01/09 07:20:46;;;;;;;0.97;0.93;;;;;;;;;;4959286;28;91897;-62
2024/01/09 07:23:16;;;;;;;0.67;0.67;;;;;;;;;;4972419;28;92140;-62
2024/01/09 07:25:48;;;;;;;0.30;0.30;;;;;;;;;;4979317;28;94303;-62
2024/01/09 07:28:16;;;;;;;0.47;0.47;;;;;;;;;;4977430;28;93985;-62
2024/01/09 07:30:45;;;;;;;0.50;0.50;;;;;;;;;;4958941;28;92126;-62
2024/01/09 07:33:13;;;;;;;0.67;0.67;;;;;;;;;;4948244;28;93072;-62
2024/01/09 07:35:42;;;;;;;1.47;0.53;;;;;;;;;;4963560;28;94145;-61
2024/01/09 07:38:10;;;;;;;0.67;0.57;;;;;;;;;;4960358;28;94232;-62
2024/01/09 07:40:40;;;;;;;0.60;0.47;;;;;;;;;;4963850;28;93028;-62
2024/01/09 07:43:08;;;;;;;0.50;0.50;;;;;;;;;;4956865;28;92074;-61
2024/01/09 07:45:37;;;;;;;1.33;1.07;;;;;;;;;;4959862;28;94206;-62
2024/01/09 07:48:05;;;;;;;0.90;0.73;;;;;;;;;;4971351;28;93990;-61
2024/01/09 07:50:34;;;;;;;1.93;0.47;;;;;;;;;;4962458;28;92075;-62
2024/01/09 07:53:02;;;;;;;0.50;0.50;;;;;;;;;;4959107;28;92098;-62
2024/01/09 07:55:33;;;;;;;0.73;0.67;;;;;;;;;;4969336;28;94190;-62
2024/01/09 07:58:04;;;;;;;0.40;0.40;;;;;;;;;;4967320;28;93908;-63
2024/01/09 08:00:33;;;;;;;1.17;0.63;;;;;;;;;;4960959;28;92150;-62
2024/01/09 08:03:04;;;;;;;0.93;0.53;;;;;;;;;;4960707;28;92088;-62
2024/01/09 08:05:33;;;;;;;0.50;0.50;;;;;;;;;;4964074;28;95013;-62
2024/01/09 08:08:02;;;;;;;1.37;0.60;;;;;;;;;;4961998;28;94541;-61
2024/01/09 08:10:30;;;;;;;0.80;0.80;;;;;;;;;;4967195;28;92099;-62
2024/01/09 08:12:58;;;;;;;2.20;0.73;;;;;;;;;;4978649;28;92095;-62
2024/01/09 08:15:29;;;;;;;0.70;0.53;;;;;;;;;;4971337;28;94238;-62
2024/01/09 08:17:57;;;;;;;1.67;0.60;;;;;;;;;;4956526;28;93127;-62
2024/01/09 08:20:25;;;;;;;0.73;0.70;;;;;;;;;;4963892;28;92961;-62
2024/01/09 08:22:54;;;;;;;1.47;0.80;;;;;;;;;;4959012;28;91361;-62
2024/01/09 08:25:22;;;;;;;0.50;0.50;;;;;;;;;;4962921;28;94253;-62
2024/01/09 08:27:51;;;;;;;1.00;0.60;;;;;;;;;;4967796;28;93835;-62
2024/01/09 08:30:19;;;;;;;1.53;0.80;;;;;;;;;;4960686;28;92964;-62
2024/01/09 08:32:49;;;;;;;1.23;0.70;;;;;;;;;;4975152;28;92131;-62
2024/01/09 08:35:19;;;;;;;0.30;0.30;;;;;;;;;;4963760;28;94290;-62
2024/01/09 08:37:48;;;;;;;0.63;0.63;;;;;;;;;;4955095;28;93816;-62
2024/01/09 08:40:17;;;;;;;0.40;0.40;;;;;;;;;;4955512;28;92303;-61
2024/01/09 08:42:45;;;;;;;0.80;0.60;;;;;;;;;;4954900;28;93652;-61
2024/01/09 08:45:15;;;;;;;1.30;0.67;;;;;;;;;;4954743;28;93987;-61
2024/01/09 08:47:44;;;;;;;1.60;1.00;;;;;;;;;;4955216;28;94352;-61
2024/01/09 08:50:13;;;;;;;0.50;0.50;;;;;;;;;;4972154;28;93577;-62
2024/01/09 08:52:42;;;;;;;1.80;1.00;;;;;;;;;;4968559;28;92107;-62
2024/01/09 08:55:10;;;;;;;0.50;0.50;;;;;;;;;;4977335;28;95152;-62
2024/01/09 08:57:39;;;;;;;0.60;0.47;;;;;;;;;;4958469;28;95142;-62
2024/01/09 09:00:08;;;;;;;1.77;0.90;;;;;;;;;;4974406;28;92172;-62
2024/01/09 09:02:36;;;;;;;0.80;0.80;;;;;;;;;;4961401;28;92203;-62
2024/01/09 09:05:05;;;;;;;1.03;0.70;;;;;;;;;;4959550;28;94183;-62
2024/01/09 09:07:35;;;;;;;0.50;0.50;;;;;;;;;;4976483;28;93950;-63
2024/01/09 09:10:04;;;;;;;1.57;0.80;;;;;;;;;;4974166;28;91967;-62
2024/01/09 09:12:33;;;;;;;0.60;0.60;;;;;;;;;;4979307;28;91340;-64
2024/01/09 09:15:02;;;;;;;1.67;0.80;;;;;;;;;;4964669;28;94210;-62
2024/01/09 09:17:31;;;;;;;2.33;1.10;;;;;;;;;;4957423;28;93626;-63
2024/01/09 09:20:00;;;;;;;3.00;0.70;;;;;;;;;;4955769;28;93098;-62
2024/01/09 09:22:29;;;;;;;2.20;0.87;;;;;;;;;;4957134;28;92095;-62
2024/01/09 09:24:59;;;;;;;1.07;0.97;;;;;;;;;;4968393;28;94074;-63
2024/01/09 09:27:27;;;;;;;3.07;1.00;;;;;;;;;;4958335;28;94833;-63
2024/01/09 09:29:56;;;;;;;1.07;0.80;;;;;;;;;;4957998;28;91993;-63
2024/01/09 09:32:24;;;;;;;0.93;0.77;;;;;;;;;;4958510;28;92249;-64
2024/01/09 09:34:53;;;;;;;1.30;1.20;;;;;;;;;;4958929;28;93831;-62
2024/01/09 09:37:21;;;;;;;1.40;0.80;;;;;;;;;;4972399;28;95807;-63
2024/01/09 09:39:50;;;;;;;1.00;0.83;;;;;;;;;;4958044;28;93456;-63
2024/01/09 09:42:19;;;;;;;1.90;1.10;;;;;;;;;;4959560;28;92261;-63
2024/01/09 09:44:48;;;;;;;2.87;1.50;;;;;;;;;;4963221;28;95052;-63
2024/01/09 09:47:17;;;;;;;2.27;0.97;;;;;;;;;;4967440;28;94940;-63
2024/01/09 09:49:46;;;;;;;1.20;0.90;;;;;;;;;;4972298;28;92046;-63
2024/01/09 09:52:14;;;;;;;1.27;0.80;;;;;;;;;;4971155;28;93801;-64
2024/01/09 09:54:43;;;;;;;1.63;0.90;;;;;;;;;;4964263;28;94074;-63
2024/01/09 09:57:16;;;;;;;2.37;1.23;;;;;;;;;;4970093;28;93872;-63
2024/01/09 09:59:46;;;;;;;1.60;1.10;;;;;;;;;;4981112;28;92114;-63
2024/01/09 10:02:20;;;;;;;0.80;0.70;;;;;;;;;;4970412;28;91320;-63
2024/01/09 10:04:54;;;;;;;0.77;0.77;;;;;;;;;;4964593;28;94289;-63
2024/01/09 10:07:23;;;;;;;1.13;1.00;;;;;;;;;;4969682;28;93888;-62
2024/01/09 10:09:53;;;;;;;0.50;0.50;;;;;;;;;;4976001;28;92942;-63
2024/01/09 10:12:24;;;;;;;1.03;1.00;;;;;;;;;;4972053;28;91958;-64
2024/01/09 10:15:04;;;;;;;1.03;0.83;;;;;;;;;;4973703;28;94074;-64
2024/01/09 10:17:33;;;;;;;1.23;1.13;;;;;;;;;;4964573;28;95122;-63
2024/01/09 10:20:03;;;;;;;1.33;0.70;;;;;;;;;;4976503;28;92312;-62
2024/01/09 10:22:35;;;;;;;1.87;0.70;;;;;;;;;;4973528;28;92220;-62
2024/01/09 10:25:05;;;;;;;1.70;0.90;;;;;;;;;;4967350;28;94396;-62
2024/01/09 10:27:35;;;;;;;0.70;0.70;;;;;;;;;;4959685;28;94190;-63
2024/01/09 10:30:05;;;;;;;2.27;0.93;;;;;;;;;;4964446;28;92097;-63
2024/01/09 10:32:35;;;;;;;1.00;0.70;;;;;;;;;;4971686;28;92040;-63
2024/01/09 10:35:04;;;;;;;0.70;0.60;;;;;;;;;;4968243;28;95142;-63
2024/01/09 10:37:32;;;;;;;0.80;0.70;;;;;;;;;;4966791;28;95041;-63
2024/01/09 10:40:00;;;;;;;1.00;0.70;;;;;;;;;;4977819;28;93074;-63
2024/01/09 10:42:30;;;;;;;0.77;0.50;;;;;;;;;;4970814;28;92175;-63
2024/01/09 10:44:59;;;;;;;1.07;0.97;;;;;;;;;;4972786;28;94216;-63
2024/01/09 10:47:29;;;;;;;1.33;0.73;;;;;;;;;;4960978;28;94087;-63
2024/01/09 10:49:58;;;;;;;1.67;0.77;;;;;;;;;;4966834;28;92108;-65
2024/01/09 10:52:26;;;;;;;1.70;0.77;;;;;;;;;;4965329;28;91384;-65
2024/01/09 10:54:54;;;;;;;0.77;0.60;;;;;;;;;;4970777;28;94163;-65
2024/01/09 10:57:23;;;;;;;0.57;0.57;;;;;;;;;;4959896;28;93756;-66
2024/01/09 10:59:53;;;;;;;1.70;0.67;;;;;;;;;;4968353;28;93529;-64
2024/01/09 11:02:22;;;;;;;4.77;1.10;;;;;;;;;;4973109;28;92171;-65
2024/01/09 11:04:52;;;;;;;6.60;0.97;;;;;;;;;;4963068;28;96700;-65
2024/01/09 11:07:20;;;;;;;0.93;0.73;;;;;;;;;;4969082;28;93922;-64
2024/01/09 11:09:49;;;;;;;0.67;0.67;;;;;;;;;;4960251;28;92712;-65
2024/01/09 11:12:18;;;;;;;2.30;0.80;;;;;;;;;;4966174;28;92270;-65
2024/01/09 11:14:48;;;;;;;0.70;0.70;;;;;;;;;;4954886;28;94086;-65
2024/01/09 11:17:18;;;;;;;0.50;0.50;;;;;;;;;;4962462;28;93833;-65
2024/01/09 11:19:47;;;;;;;1.47;0.67;;;;;;;;;;4960902;28;92219;-65
2024/01/09 11:22:18;;;;;;;0.83;0.73;;;;;;;;;;4970009;28;92484;-65
2024/01/09 11:24:48;;;;;;;2.20;0.73;;;;;;;;;;4966663;28;95247;-65
2024/01/09 11:27:18;;;;;;;1.53;1.03;;;;;;;;;;4964527;28;94684;-65
2024/01/09 11:29:50;;;;;;;0.80;0.73;;;;;;;;;;4962218;28;92008;-65
2024/01/09 11:32:18;;;;;;;1.00;0.67;;;;;;;;;;4961802;28;92226;-65
2024/01/09 11:34:48;;;;;;;1.23;0.80;;;;;;;;;;4960483;28;94251;-65
2024/01/09 11:37:19;;;;;;;0.93;0.80;;;;;;;;;;4970106;28;93927;-65
2024/01/09 11:39:50;;;;;;;1.87;0.93;;;;;;;;;;4966221;28;92171;-65
2024/01/09 11:42:19;;;;;;;1.27;0.90;;;;;;;;;;4967735;28;91266;-65
2024/01/09 11:44:47;;;;;;;1.27;0.80;;;;;;;;;;4974578;28;94055;-65
2024/01/09 11:47:16;;;;;;;1.10;0.73;;;;;;;;;;4961359;28;93823;-65
2024/01/09 11:49:45;;;;;;;1.10;0.90;;;;;;;;;;4969810;28;94302;-65
2024/01/09 11:52:13;;;;;;;0.70;0.70;;;;;;;;;;4956558;28;92175;-65
2024/01/09 11:54:44;;;;;;;1.60;0.63;;;;;;;;;;4958795;28;94561;-65
2024/01/09 11:57:12;;;;;;;0.93;0.83;;;;;;;;;;4960750;28;93826;-65
2024/01/09 11:59:42;;;;;;;1.03;0.93;;;;;;;;;;4971751;28;92047;-65
2024/01/09 12:02:10;;;;;;;1.10;1.00;;;;;;;;;;4970766;28;93237;-65
2024/01/09 12:04:38;;;;;;;1.77;0.87;;;;;;;;;;4975517;28;93038;-65
2024/01/09 12:07:07;;;;;;;0.47;0.47;;;;;;;;;;4971368;28;92614;-65
2024/01/09 12:09:37;;;;;;;1.50;0.63;;;;;;;;;;4966058;28;92168;-65
2024/01/09 12:12:10;;;;;;;2.60;0.97;;;;;;;;;;4966175;28;92351;-65
2024/01/09 12:14:38;;;;;;;0.70;0.70;;;;;;;;;;4942383;28;95358;-65
2024/01/09 12:17:19;;;;;;;2.37;0.67;;;;;;;;;;4960492;28;94570;-65
2024/01/09 12:19:48;;;;;;;0.43;0.43;;;;;;;;;;4963551;28;92162;-65
2024/01/09 12:22:17;;;;;;;0.37;0.37;;;;;;;;;;4960283;28;92145;-65
2024/01/09 12:24:45;;;;;;;0.73;0.73;;;;;;;;;;4963984;28;94063;-64
2024/01/09 12:27:15;;;;;;;0.60;0.60;;;;;;;;;;4958709;28;94007;-64
2024/01/09 12:29:44;;;;;;;1.37;1.00;;;;;;;;;;4976270;28;92132;-64
2024/01/09 12:32:12;;;;;;;2.40;0.60;;;;;;;;;;4964779;28;91462;-65
2024/01/09 12:34:42;;;;;;;0.40;0.40;;;;;;;;;;4954640;28;94278;-64
2024/01/09 12:37:11;;;;;;;2.33;0.87;;;;;;;;;;4959421;28;93890;-64
2024/01/09 12:39:39;;;;;;;0.73;0.73;;;;;;;;;;4960577;28;92942;-65
2024/01/09 12:42:10;;;;;;;1.40;0.80;;;;;;;;;;4958978;28;92068;-64
2024/01/09 12:44:41;;;;;;;1.33;0.90;;;;;;;;;;4963545;28;94291;-63
2024/01/09 12:47:10;;;;;;;1.10;0.70;;;;;;;;;;4964801;28;93755;-62
2024/01/09 12:49:45;;;;;;;0.80;0.70;;;;;;;;;;4968405;28;92012;-63
2024/01/09 12:52:30;;;;;;;3.80;0.70;;;;;;;;;;4956891;28;92204;-64
2024/01/09 12:55:00;;;;;;;0.67;0.67;;;;;;;;;;4946827;28;94042;-64
2024/01/09 12:57:32;;;;;;;0.83;0.67;;;;;;;;;;4957996;28;92786;-64
2024/01/09 13:00:02;;;;;;;0.80;0.70;;;;;;;;;;4956978;28;92149;-65
2024/01/09 13:02:30;;;;;;;0.77;0.77;;;;;;;;;;4964026;28;92188;-64
2024/01/09 13:04:59;;;;;;;0.70;0.50;;;;;;;;;;4958417;28;94978;-62
2024/01/09 13:07:27;;;;;;;0.60;0.60;;;;;;;;;;4957622;28;94868;-64
2024/01/09 13:09:56;;;;;;;5.17;0.77;;;;;;;;;;4963937;28;92222;-64
2024/01/09 13:12:24;;;;;;;1.23;0.80;;;;;;;;;;4957305;28;92951;-64
2024/01/09 13:14:53;;;;;;;1.47;0.87;;;;;;;;;;4955505;28;93537;-64
2024/01/09 13:17:23;;;;;;;4.23;0.50;;;;;;;;;;4954092;28;93818;-64
2024/01/09 13:19:53;;;;;;;1.73;0.67;;;;;;;;;;4958738;28;92081;-63
2024/01/09 13:22:22;;;;;;;0.63;0.53;;;;;;;;;;4961096;28;92536;-63
2024/01/09 13:24:55;;;;;;;0.50;0.50;;;;;;;;;;4951813;28;92766;-63
2024/01/09 13:27:23;;;;;;;0.97;0.70;;;;;;;;;;4953057;28;93900;-63
2024/01/09 13:29:52;;;;;;;1.30;0.73;;;;;;;;;;4971498;28;93091;-64
2024/01/09 13:32:24;;;;;;;0.90;0.70;;;;;;;;;;4965606;28;91967;-64
2024/01/09 13:34:53;;;;;;;1.07;0.80;;;;;;;;;;4948606;28;94182;-63
2024/01/09 13:37:22;;;;;;;0.73;0.53;;;;;;;;;;4965400;28;93794;-64
2024/01/09 13:39:51;;;;;;;0.40;0.40;;;;;;;;;;4958034;28;92153;-64
2024/01/09 13:42:20;;;;;;;1.73;1.03;;;;;;;;;;4959630;28;92177;-63
2024/01/09 13:44:48;;;;;;;3.17;0.90;;;;;;;;;;4959451;28;94442;-63
2024/01/09 13:47:17;;;;;;;1.03;0.80;;;;;;;;;;4957880;28;93837;-63
2024/01/09 13:49:46;;;;;;;0.43;0.30;;;;;;;;;;4967335;28;92026;-64
2024/01/09 13:52:35;;;;;;;0.73;0.63;;;;;;;;;;4959836;28;92140;-66
2024/01/09 13:55:05;;;;;;;1.20;0.60;;;;;;;;;;4964743;28;95905;-65
2024/01/09 13:57:38;;;;;;;0.50;0.50;;;;;;;;;;4966505;28;94801;-64
2024/01/09 14:00:09;;;;;;;0.57;0.47;;;;;;;;;;4957606;28;92090;-64
2024/01/09 14:02:38;;;;;;;1.97;0.70;;;;;;;;;;4964356;28;92090;-63
2024/01/09 14:05:10;;;;;;;0.70;0.60;;;;;;;;;;4968777;28;94405;-63
2024/01/09 14:07:39;;;;;;;3.13;0.80;;;;;;;;;;4956146;28;93932;-63
2024/01/09 14:10:09;;;;;;;0.90;0.70;;;;;;;;;;4955543;28;92144;-63
2024/01/09 14:12:37;;;;;;;0.50;0.50;;;;;;;;;;4958426;28;92285;-63
2024/01/09 14:15:07;;;;;;;0.50;0.37;;;;;;;;;;4954915;28;94231;-63
2024/01/09 14:17:36;;;;;;;1.40;0.70;;;;;;;;;;4955076;28;93836;-63
2024/01/09 14:20:07;;;;;;;0.40;0.40;;;;;;;;;;4960178;28;93202;-63
2024/01/09 14:22:37;;;;;;;0.50;0.50;;;;;;;;;;4957598;28;92274;-64
2024/01/09 14:25:05;;;;;;;3.13;1.00;;;;;;;;;;4965639;28;94176;-64
2024/01/09 14:27:34;;;;;;;4.00;0.63;;;;;;;;;;4961068;28;93862;-64
2024/01/09 14:30:03;;;;;;;0.47;0.47;;;;;;;;;;4961770;28;92438;-62
2024/01/09 14:32:31;;;;;;;0.40;0.40;;;;;;;;;;4954432;28;93539;-64
2024/01/09 14:35:00;;;;;;;0.60;0.60;;;;;;;;;;4971225;28;94169;-64
2024/01/09 14:37:29;;;;;;;1.47;0.90;;;;;;;;;;4968799;28;92847;-64
2024/01/09 14:39:59;;;;;;;0.77;0.77;;;;;;;;;;4966489;28;91908;-64
2024/01/09 14:42:27;;;;;;;1.03;0.90;;;;;;;;;;4969404;28;92088;-63
2024/01/09 14:44:56;;;;;;;1.50;0.90;;;;;;;;;;4969576;28;95089;-64
2024/01/09 14:47:24;;;;;;;0.87;0.73;;;;;;;;;;4969128;28;94752;-64
2024/01/09 14:49:52;;;;;;;0.53;0.53;;;;;;;;;;4968219;28;91982;-63
2024/01/09 14:52:21;;;;;;;2.30;1.23;;;;;;;;;;4969629;28;91920;-64
2024/01/09 14:54:49;;;;;;;0.50;0.50;;;;;;;;;;4969772;28;94214;-64